sensor_id;sensor_type;location;lat;lon;timestamp;P1;durP1;ratioP1;P2;durP2;ratioP2
27357;SDS011;14831;50.474;7.616;2023-02-15T00:01:58;2.9;;;2.7;;
27357;SDS011;14831;50.474;7.616;2023-02-15T00:06:58;2.9;;;2.7;;
27357;SDS011;14831;50.474;7.616;2023-02-15T00:11:58;2.9;;;2.7;;
27357;SDS011;14831;50.474;7.616;2023-02-15T00:16:58;2.9;;;2.7;;
27357;SDS011;14831;50.474;7.616;2023-02-15T00:21:59;2.9;;;2.7;;
27357;SDS011;14831;50.474;7.616;2023-02-15T00:26:58;2.9;;;2.7;;
27357;SDS011;14831;50.474;7.616;2023-02-15T00:31:58;2.9;;;2.7;;
27357;SDS011;14831;50.474;7.616;2023-02-15T00:36:58;2.9;;;2.7;;
27357;SDS011;14831;50.474;7.616;2023-02-15T00:41:58;2.9;;;2.7;;
27357;SDS011;14831;50.474;7.616;2023-02-15T00:46:59;2.9;;;2.7;;
27357;SDS011;14831;50.474;7.616;2023-02-15T00:51:58;3.1;;;2.8;;
27357;SDS011;14831;50.474;7.616;2023-02-15T00:56:58;3.1;;;2.8;;
27357;SDS011;14831;50.474;7.616;2023-02-15T01:01:58;3.1;;;2.8;;
27357;SDS011;14831;50.474;7.616;2023-02-15T01:06:58;3.1;;;2.8;;
27357;SDS011;14831;50.474;7.616;2023-02-15T01:11:58;3.1;;;2.8;;
27357;SDS011;14831;50.474;7.616;2023-02-15T01:16:58;3.1;;;2.8;;
27357;SDS011;14831;50.474;7.616;2023-02-15T01:21:58;2.9;;;2.7;;
27357;SDS011;14831;50.474;7.616;2023-02-15T01:26:58;2.9;;;2.7;;
27357;SDS011;14831;50.474;7.616;2023-02-15T01:31:58;2.9;;;2.7;;
27357;SDS011;14831;50.474;7.616;2023-02-15T01:36:58;2.9;;;2.7;;
27357;SDS011;14831;50.474;7.616;2023-02-15T01:41:58;2.9;;;2.7;;
27357;SDS011;14831;50.474;7.616;2023-02-15T01:46:59;2.9;;;2.7;;
27357;SDS011;14831;50.474;7.616;2023-02-15T01:51:58;2.9;;;2.5;;
27357;SDS011;14831;50.474;7.616;2023-02-15T01:57:02;2.9;;;2.5;;
27357;SDS011;14831;50.474;7.616;2023-02-15T02:01:59;2.9;;;2.5;;
27357;SDS011;14831;50.474;7.616;2023-02-15T02:06:59;2.9;;;2.5;;
27357;SDS011;14831;50.474;7.616;2023-02-15T02:11:59;2.9;;;2.5;;
27357;SDS011;14831;50.474;7.616;2023-02-15T02:17:05;2.9;;;2.5;;
27357;SDS011;14831;50.474;7.616;2023-02-15T02:22:12;2.9;;;2.6;;
27357;SDS011;14831;50.474;7.616;2023-02-15T02:27:34;2.9;;;2.6;;
27357;SDS011;14831;50.474;7.616;2023-02-15T02:32:16;2.9;;;2.6;;
27357;SDS011;14831;50.474;7.616;2023-02-15T02:37:06;2.9;;;2.6;;
27357;SDS011;14831;50.474;7.616;2023-02-15T02:42:02;2.9;;;2.6;;
27357;SDS011;14831;50.474;7.616;2023-02-15T02:47:04;2.9;;;2.6;;
27357;SDS011;14831;50.474;7.616;2023-02-15T02:52:00;2.7;;;2.5;;
27357;SDS011;14831;50.474;7.616;2023-02-15T02:57:03;2.7;;;2.5;;
27357;SDS011;14831;50.474;7.616;2023-02-15T03:02:02;2.7;;;2.5;;
27357;SDS011;14831;50.474;7.616;2023-02-15T03:07:01;2.7;;;2.5;;
27357;SDS011;14831;50.474;7.616;2023-02-15T03:11:58;2.7;;;2.5;;
27357;SDS011;14831;50.474;7.616;2023-02-15T03:16:59;2.7;;;2.5;;
27357;SDS011;14831;50.474;7.616;2023-02-15T03:22:03;2.5;;;2.3;;
27357;SDS011;14831;50.474;7.616;2023-02-15T03:26:59;2.5;;;2.3;;
27357;SDS011;14831;50.474;7.616;2023-02-15T03:32:01;2.5;;;2.3;;
27357;SDS011;14831;50.474;7.616;2023-02-15T03:37:04;2.5;;;2.3;;
27357;SDS011;14831;50.474;7.616;2023-02-15T03:42:08;2.5;;;2.3;;
27357;SDS011;14831;50.474;7.616;2023-02-15T03:47:04;2.5;;;2.3;;
27357;SDS011;14831;50.474;7.616;2023-02-15T03:51:59;2.0;;;1.9;;
27357;SDS011;14831;50.474;7.616;2023-02-15T03:56:58;2.0;;;1.9;;
27357;SDS011;14831;50.474;7.616;2023-02-15T04:02:08;2.0;;;1.9;;
27357;SDS011;14831;50.474;7.616;2023-02-15T04:06:59;2.0;;;1.9;;
27357;SDS011;14831;50.474;7.616;2023-02-15T04:11:59;2.0;;;1.9;;
27357;SDS011;14831;50.474;7.616;2023-02-15T04:16:58;2.0;;;1.9;;
27357;SDS011;14831;50.474;7.616;2023-02-15T04:21:58;2.3;;;2.1;;
27357;SDS011;14831;50.474;7.616;2023-02-15T04:26:59;2.3;;;2.1;;
27357;SDS011;14831;50.474;7.616;2023-02-15T04:32:00;2.3;;;2.1;;
27357;SDS011;14831;50.474;7.616;2023-02-15T04:36:58;2.3;;;2.1;;
27357;SDS011;14831;50.474;7.616;2023-02-15T04:41:58;2.3;;;2.1;;
27357;SDS011;14831;50.474;7.616;2023-02-15T04:46:58;2.3;;;2.1;;
27357;SDS011;14831;50.474;7.616;2023-02-15T04:51:58;2.3;;;2.1;;
27357;SDS011;14831;50.474;7.616;2023-02-15T04:56:58;2.3;;;2.1;;
27357;SDS011;14831;50.474;7.616;2023-02-15T05:01:59;2.3;;;2.1;;
27357;SDS011;14831;50.474;7.616;2023-02-15T05:06:58;2.3;;;2.1;;
27357;SDS011;14831;50.474;7.616;2023-02-15T05:11:58;2.3;;;2.1;;
27357;SDS011;14831;50.474;7.616;2023-02-15T05:16:58;2.3;;;2.1;;
27357;SDS011;14831;50.474;7.616;2023-02-15T05:21:58;2.3;;;2.1;;
27357;SDS011;14831;50.474;7.616;2023-02-15T05:26:58;2.3;;;2.1;;
27357;SDS011;14831;50.474;7.616;2023-02-15T05:31:58;2.3;;;2.1;;
27357;SDS011;14831;50.474;7.616;2023-02-15T05:36:58;2.3;;;2.1;;
27357;SDS011;14831;50.474;7.616;2023-02-15T05:41:59;2.3;;;2.1;;
27357;SDS011;14831;50.474;7.616;2023-02-15T05:46:58;2.3;;;2.1;;
27357;SDS011;14831;50.474;7.616;2023-02-15T05:51:58;2.0;;;1.9;;
27357;SDS011;14831;50.474;7.616;2023-02-15T05:56:58;2.0;;;1.9;;
27357;SDS011;14831;50.474;7.616;2023-02-15T06:01:58;2.0;;;1.9;;
27357;SDS011;14831;50.474;7.616;2023-02-15T06:06:58;2.0;;;1.9;;
27357;SDS011;14831;50.474;7.616;2023-02-15T06:11:58;2.0;;;1.9;;
27357;SDS011;14831;50.474;7.616;2023-02-15T06:16:58;2.0;;;1.9;;
27357;SDS011;14831;50.474;7.616;2023-02-15T06:21:58;2.1;;;2.0;;
27357;SDS011;14831;50.474;7.616;2023-02-15T06:26:58;2.1;;;2.0;;
27357;SDS011;14831;50.474;7.616;2023-02-15T06:31:58;2.1;;;2.0;;
27357;SDS011;14831;50.474;7.616;2023-02-15T06:36:58;2.1;;;2.0;;
27357;SDS011;14831;50.474;7.616;2023-02-15T06:41:58;2.1;;;2.0;;
27357;SDS011;14831;50.474;7.616;2023-02-15T06:46:58;2.1;;;2.0;;
27357;SDS011;14831;50.474;7.616;2023-02-15T06:51:58;2.2;;;2.0;;
27357;SDS011;14831;50.474;7.616;2023-02-15T06:56:58;2.2;;;2.0;;
27357;SDS011;14831;50.474;7.616;2023-02-15T07:01:58;2.2;;;2.0;;
27357;SDS011;14831;50.474;7.616;2023-02-15T07:06:58;2.2;;;2.0;;
27357;SDS011;14831;50.474;7.616;2023-02-15T07:11:58;2.2;;;2.0;;
27357;SDS011;14831;50.474;7.616;2023-02-15T07:16:58;2.2;;;2.0;;
27357;SDS011;14831;50.474;7.616;2023-02-15T07:21:58;2.3;;;1.9;;
27357;SDS011;14831;50.474;7.616;2023-02-15T07:26:58;2.3;;;1.9;;
27357;SDS011;14831;50.474;7.616;2023-02-15T07:31:58;2.3;;;1.9;;
27357;SDS011;14831;50.474;7.616;2023-02-15T07:36:58;2.3;;;1.9;;
27357;SDS011;14831;50.474;7.616;2023-02-15T07:41:59;2.3;;;1.9;;
27357;SDS011;14831;50.474;7.616;2023-02-15T07:46:58;2.3;;;1.9;;
27357;SDS011;14831;50.474;7.616;2023-02-15T07:52:00;2.1;;;1.9;;
27357;SDS011;14831;50.474;7.616;2023-02-15T07:57:00;2.1;;;1.9;;
27357;SDS011;14831;50.474;7.616;2023-02-15T08:01:58;2.1;;;1.9;;
27357;SDS011;14831;50.474;7.616;2023-02-15T08:06:58;2.1;;;1.9;;
27357;SDS011;14831;50.474;7.616;2023-02-15T08:11:58;2.1;;;1.9;;
27357;SDS011;14831;50.474;7.616;2023-02-15T08:16:59;2.1;;;1.9;;
27357;SDS011;14831;50.474;7.616;2023-02-15T08:22:00;2.8;;;2.1;;
27357;SDS011;14831;50.474;7.616;2023-02-15T08:26:59;2.8;;;2.1;;
27357;SDS011;14831;50.474;7.616;2023-02-15T08:32:00;2.8;;;2.1;;
27357;SDS011;14831;50.474;7.616;2023-02-15T08:36:58;2.8;;;2.1;;
27357;SDS011;14831;50.474;7.616;2023-02-15T08:41:58;2.8;;;2.1;;
27357;SDS011;14831;50.474;7.616;2023-02-15T08:46:58;2.8;;;2.1;;
27357;SDS011;14831;50.474;7.616;2023-02-15T08:51:58;2.0;;;1.9;;
27357;SDS011;14831;50.474;7.616;2023-02-15T08:56:59;2.0;;;1.9;;
27357;SDS011;14831;50.474;7.616;2023-02-15T09:01:58;2.0;;;1.9;;
27357;SDS011;14831;50.474;7.616;2023-02-15T09:06:58;2.0;;;1.9;;
27357;SDS011;14831;50.474;7.616;2023-02-15T09:11:58;2.0;;;1.9;;
27357;SDS011;14831;50.474;7.616;2023-02-15T09:16:58;2.0;;;1.9;;
27357;SDS011;14831;50.474;7.616;2023-02-15T09:21:58;2.1;;;1.9;;
27357;SDS011;14831;50.474;7.616;2023-02-15T09:26:58;2.1;;;1.9;;
27357;SDS011;14831;50.474;7.616;2023-02-15T09:31:58;2.1;;;1.9;;
27357;SDS011;14831;50.474;7.616;2023-02-15T09:36:58;2.1;;;1.9;;
27357;SDS011;14831;50.474;7.616;2023-02-15T09:42:09;2.1;;;1.9;;
27357;SDS011;14831;50.474;7.616;2023-02-15T09:47:13;2.1;;;1.9;;
27357;SDS011;14831;50.474;7.616;2023-02-15T09:52:14;2.1;;;1.9;;
27357;SDS011;14831;50.474;7.616;2023-02-15T09:57:03;2.1;;;1.9;;
27357;SDS011;14831;50.474;7.616;2023-02-15T10:02:09;2.1;;;1.9;;
27357;SDS011;14831;50.474;7.616;2023-02-15T10:07:11;2.1;;;1.9;;
27357;SDS011;14831;50.474;7.616;2023-02-15T10:12:12;2.1;;;1.9;;
27357;SDS011;14831;50.474;7.616;2023-02-15T10:17:11;2.1;;;1.9;;
27357;SDS011;14831;50.474;7.616;2023-02-15T10:22:06;2.1;;;2.0;;
27357;SDS011;14831;50.474;7.616;2023-02-15T10:27:02;2.1;;;2.0;;
27357;SDS011;14831;50.474;7.616;2023-02-15T10:32:07;2.1;;;2.0;;
27357;SDS011;14831;50.474;7.616;2023-02-15T10:37:15;2.1;;;2.0;;
27357;SDS011;14831;50.474;7.616;2023-02-15T10:42:05;2.1;;;2.0;;
27357;SDS011;14831;50.474;7.616;2023-02-15T10:47:17;2.1;;;2.0;;
27357;SDS011;14831;50.474;7.616;2023-02-15T10:52:13;2.4;;;2.2;;
27357;SDS011;14831;50.474;7.616;2023-02-15T10:57:03;2.4;;;2.2;;
27357;SDS011;14831;50.474;7.616;2023-02-15T11:02:04;2.4;;;2.2;;
27357;SDS011;14831;50.474;7.616;2023-02-15T11:07:02;2.4;;;2.2;;
27357;SDS011;14831;50.474;7.616;2023-02-15T11:11:58;2.4;;;2.2;;
27357;SDS011;14831;50.474;7.616;2023-02-15T11:17:02;2.4;;;2.2;;
27357;SDS011;14831;50.474;7.616;2023-02-15T11:22:01;2.7;;;2.2;;
27357;SDS011;14831;50.474;7.616;2023-02-15T11:27:03;2.7;;;2.2;;
27357;SDS011;14831;50.474;7.616;2023-02-15T11:32:02;2.7;;;2.2;;
27357;SDS011;14831;50.474;7.616;2023-02-15T11:37:04;2.7;;;2.2;;
27357;SDS011;14831;50.474;7.616;2023-02-15T11:42:01;2.7;;;2.2;;
27357;SDS011;14831;50.474;7.616;2023-02-15T11:46:59;2.7;;;2.2;;
27357;SDS011;14831;50.474;7.616;2023-02-15T11:52:00;3.0;;;2.5;;
27357;SDS011;14831;50.474;7.616;2023-02-15T11:57:04;3.0;;;2.5;;
27357;SDS011;14831;50.474;7.616;2023-02-15T12:01:58;3.0;;;2.5;;
27357;SDS011;14831;50.474;7.616;2023-02-15T12:07:02;3.0;;;2.5;;
27357;SDS011;14831;50.474;7.616;2023-02-15T12:12:21;3.0;;;2.5;;
27357;SDS011;14831;50.474;7.616;2023-02-15T12:16:58;3.0;;;2.5;;
27357;SDS011;14831;50.474;7.616;2023-02-15T12:22:01;2.6;;;2.4;;
27357;SDS011;14831;50.474;7.616;2023-02-15T12:27:01;2.6;;;2.4;;
27357;SDS011;14831;50.474;7.616;2023-02-15T12:31:59;2.6;;;2.4;;
27357;SDS011;14831;50.474;7.616;2023-02-15T12:37:02;2.6;;;2.4;;
27357;SDS011;14831;50.474;7.616;2023-02-15T12:42:01;2.6;;;2.4;;
27357;SDS011;14831;50.474;7.616;2023-02-15T12:47:01;2.6;;;2.4;;
27357;SDS011;14831;50.474;7.616;2023-02-15T12:52:00;21.6;;;12.2;;
27357;SDS011;14831;50.474;7.616;2023-02-15T12:56:59;21.6;;;12.2;;
27357;SDS011;14831;50.474;7.616;2023-02-15T13:02:09;21.6;;;12.2;;
27357;SDS011;14831;50.474;7.616;2023-02-15T13:07:01;21.6;;;12.2;;
27357;SDS011;14831;50.474;7.616;2023-02-15T13:12:10;21.6;;;12.2;;
27357;SDS011;14831;50.474;7.616;2023-02-15T13:17:01;21.6;;;12.2;;
27357;SDS011;14831;50.474;7.616;2023-02-15T13:22:03;17.5;;;10.6;;
27357;SDS011;14831;50.474;7.616;2023-02-15T13:26:59;17.5;;;10.6;;
27357;SDS011;14831;50.474;7.616;2023-02-15T13:32:05;17.5;;;10.6;;
27357;SDS011;14831;50.474;7.616;2023-02-15T13:37:02;17.5;;;10.6;;
27357;SDS011;14831;50.474;7.616;2023-02-15T13:42:02;17.5;;;10.6;;
27357;SDS011;14831;50.474;7.616;2023-02-15T13:47:07;17.5;;;10.6;;
27357;SDS011;14831;50.474;7.616;2023-02-15T13:52:07;13.9;;;8.7;;
27357;SDS011;14831;50.474;7.616;2023-02-15T13:57:08;13.9;;;8.7;;
27357;SDS011;14831;50.474;7.616;2023-02-15T14:02:23;13.9;;;8.7;;
27357;SDS011;14831;50.474;7.616;2023-02-15T14:07:14;13.9;;;8.7;;
27357;SDS011;14831;50.474;7.616;2023-02-15T14:12:14;13.9;;;8.7;;
27357;SDS011;14831;50.474;7.616;2023-02-15T14:17:03;13.9;;;8.7;;
27357;SDS011;14831;50.474;7.616;2023-02-15T14:22:02;12.4;;;7.8;;
27357;SDS011;14831;50.474;7.616;2023-02-15T14:27:05;12.4;;;7.8;;
27357;SDS011;14831;50.474;7.616;2023-02-15T14:32:05;12.4;;;7.8;;
27357;SDS011;14831;50.474;7.616;2023-02-15T14:36:59;12.4;;;7.8;;
27357;SDS011;14831;50.474;7.616;2023-02-15T14:42:03;12.4;;;7.8;;
27357;SDS011;14831;50.474;7.616;2023-02-15T14:47:04;12.4;;;7.8;;
27357;SDS011;14831;50.474;7.616;2023-02-15T14:52:01;11.3;;;7.2;;
27357;SDS011;14831;50.474;7.616;2023-02-15T14:57:24;11.3;;;7.2;;
27357;SDS011;14831;50.474;7.616;2023-02-15T15:02:09;11.3;;;7.2;;
27357;SDS011;14831;50.474;7.616;2023-02-15T15:07:08;11.3;;;7.2;;
27357;SDS011;14831;50.474;7.616;2023-02-15T15:12:14;11.3;;;7.2;;
27357;SDS011;14831;50.474;7.616;2023-02-15T15:16:59;11.3;;;7.2;;
27357;SDS011;14831;50.474;7.616;2023-02-15T15:22:02;9.1;;;6.6;;
27357;SDS011;14831;50.474;7.616;2023-02-15T15:27:37;9.1;;;6.6;;
27357;SDS011;14831;50.474;7.616;2023-02-15T15:31:59;9.1;;;6.6;;
27357;SDS011;14831;50.474;7.616;2023-02-15T15:39:12;9.1;;;6.6;;
27357;SDS011;14831;50.474;7.616;2023-02-15T15:42:06;9.1;;;6.6;;
27357;SDS011;14831;50.474;7.616;2023-02-15T15:47:10;9.1;;;6.6;;
27357;SDS011;14831;50.474;7.616;2023-02-15T15:52:00;7.8;;;5.6;;
27357;SDS011;14831;50.474;7.616;2023-02-15T15:57:01;7.8;;;5.6;;
27357;SDS011;14831;50.474;7.616;2023-02-15T16:02:03;7.8;;;5.6;;
27357;SDS011;14831;50.474;7.616;2023-02-15T16:07:14;7.8;;;5.6;;
27357;SDS011;14831;50.474;7.616;2023-02-15T16:11:59;7.8;;;5.6;;
27357;SDS011;14831;50.474;7.616;2023-02-15T16:17:02;7.8;;;5.6;;
27357;SDS011;14831;50.474;7.616;2023-02-15T16:22:00;8.0;;;5.7;;
27357;SDS011;14831;50.474;7.616;2023-02-15T16:27:11;8.0;;;5.7;;
27357;SDS011;14831;50.474;7.616;2023-02-15T16:32:01;8.0;;;5.7;;
27357;SDS011;14831;50.474;7.616;2023-02-15T16:37:15;8.0;;;5.7;;
27357;SDS011;14831;50.474;7.616;2023-02-15T16:41:59;8.0;;;5.7;;
27357;SDS011;14831;50.474;7.616;2023-02-15T16:46:59;8.0;;;5.7;;
27357;SDS011;14831;50.474;7.616;2023-02-15T16:52:00;8.8;;;6.5;;
27357;SDS011;14831;50.474;7.616;2023-02-15T16:56:59;8.8;;;6.5;;
27357;SDS011;14831;50.474;7.616;2023-02-15T17:01:59;8.8;;;6.5;;
27357;SDS011;14831;50.474;7.616;2023-02-15T17:07:03;8.8;;;6.5;;
27357;SDS011;14831;50.474;7.616;2023-02-15T17:11:59;8.8;;;6.5;;
27357;SDS011;14831;50.474;7.616;2023-02-15T17:17:01;8.8;;;6.5;;
27357;SDS011;14831;50.474;7.616;2023-02-15T17:22:01;13.3;;;7.9;;
27357;SDS011;14831;50.474;7.616;2023-02-15T17:27:03;13.3;;;7.9;;
27357;SDS011;14831;50.474;7.616;2023-02-15T17:31:58;13.3;;;7.9;;
27357;SDS011;14831;50.474;7.616;2023-02-15T17:36:58;13.3;;;7.9;;
27357;SDS011;14831;50.474;7.616;2023-02-15T17:41:58;13.3;;;7.9;;
27357;SDS011;14831;50.474;7.616;2023-02-15T17:46:58;13.3;;;7.9;;
27357;SDS011;14831;50.474;7.616;2023-02-15T17:51:59;13.7;;;7.8;;
27357;SDS011;14831;50.474;7.616;2023-02-15T17:56:58;13.7;;;7.8;;
27357;SDS011;14831;50.474;7.616;2023-02-15T18:01:58;13.7;;;7.8;;
27357;SDS011;14831;50.474;7.616;2023-02-15T18:06:59;13.7;;;7.8;;
27357;SDS011;14831;50.474;7.616;2023-02-15T18:11:59;13.7;;;7.8;;
27357;SDS011;14831;50.474;7.616;2023-02-15T18:16:58;13.7;;;7.8;;
27357;SDS011;14831;50.474;7.616;2023-02-15T18:21:58;10.8;;;7.5;;
27357;SDS011;14831;50.474;7.616;2023-02-15T18:26:58;10.8;;;7.5;;
27357;SDS011;14831;50.474;7.616;2023-02-15T18:32:00;10.8;;;7.5;;
27357;SDS011;14831;50.474;7.616;2023-02-15T18:37:00;10.8;;;7.5;;
27357;SDS011;14831;50.474;7.616;2023-02-15T18:41:59;10.8;;;7.5;;
27357;SDS011;14831;50.474;7.616;2023-02-15T18:46:58;10.8;;;7.5;;
27357;SDS011;14831;50.474;7.616;2023-02-15T18:52:00;9.4;;;7.2;;
27357;SDS011;14831;50.474;7.616;2023-02-15T18:56:59;9.4;;;7.2;;
27357;SDS011;14831;50.474;7.616;2023-02-15T19:01:58;9.4;;;7.2;;
27357;SDS011;14831;50.474;7.616;2023-02-15T19:06:58;9.4;;;7.2;;
27357;SDS011;14831;50.474;7.616;2023-02-15T19:11:58;9.4;;;7.2;;
27357;SDS011;14831;50.474;7.616;2023-02-15T19:16:59;9.4;;;7.2;;
27357;SDS011;14831;50.474;7.616;2023-02-15T19:22:00;8.0;;;6.3;;
27357;SDS011;14831;50.474;7.616;2023-02-15T19:26:58;8.0;;;6.3;;
27357;SDS011;14831;50.474;7.616;2023-02-15T19:31:58;8.0;;;6.3;;
27357;SDS011;14831;50.474;7.616;2023-02-15T19:36:58;8.0;;;6.3;;
27357;SDS011;14831;50.474;7.616;2023-02-15T19:41:58;8.0;;;6.3;;
27357;SDS011;14831;50.474;7.616;2023-02-15T19:46:58;8.0;;;6.3;;
27357;SDS011;14831;50.474;7.616;2023-02-15T19:51:58;7.0;;;5.8;;
27357;SDS011;14831;50.474;7.616;2023-02-15T19:56:59;7.0;;;5.8;;
27357;SDS011;14831;50.474;7.616;2023-02-15T20:01:58;7.0;;;5.8;;
27357;SDS011;14831;50.474;7.616;2023-02-15T20:07:00;7.0;;;5.8;;
27357;SDS011;14831;50.474;7.616;2023-02-15T20:11:58;7.0;;;5.8;;
27357;SDS011;14831;50.474;7.616;2023-02-15T20:16:58;7.0;;;5.8;;
27357;SDS011;14831;50.474;7.616;2023-02-15T20:22:00;7.4;;;6.1;;
27357;SDS011;14831;50.474;7.616;2023-02-15T20:26:58;7.4;;;6.1;;
27357;SDS011;14831;50.474;7.616;2023-02-15T20:31:58;7.4;;;6.1;;
27357;SDS011;14831;50.474;7.616;2023-02-15T20:36:58;7.4;;;6.1;;
27357;SDS011;14831;50.474;7.616;2023-02-15T20:41:58;7.4;;;6.1;;
27357;SDS011;14831;50.474;7.616;2023-02-15T20:46:58;7.4;;;6.1;;
27357;SDS011;14831;50.474;7.616;2023-02-15T20:51:59;6.4;;;5.3;;
27357;SDS011;14831;50.474;7.616;2023-02-15T20:56:58;6.4;;;5.3;;
27357;SDS011;14831;50.474;7.616;2023-02-15T21:02:00;6.4;;;5.3;;
27357;SDS011;14831;50.474;7.616;2023-02-15T21:06:59;6.4;;;5.3;;
27357;SDS011;14831;50.474;7.616;2023-02-15T21:11:59;6.4;;;5.3;;
27357;SDS011;14831;50.474;7.616;2023-02-15T21:16:58;6.4;;;5.3;;
27357;SDS011;14831;50.474;7.616;2023-02-15T21:21:59;6.5;;;5.4;;
27357;SDS011;14831;50.474;7.616;2023-02-15T21:27:00;6.5;;;5.4;;
27357;SDS011;14831;50.474;7.616;2023-02-15T21:31:58;6.5;;;5.4;;
27357;SDS011;14831;50.474;7.616;2023-02-15T21:36:58;6.5;;;5.4;;
27357;SDS011;14831;50.474;7.616;2023-02-15T21:41:58;6.5;;;5.4;;
27357;SDS011;14831;50.474;7.616;2023-02-15T21:46:58;6.5;;;5.4;;
27357;SDS011;14831;50.474;7.616;2023-02-15T21:51:58;5.4;;;4.7;;
27357;SDS011;14831;50.474;7.616;2023-02-15T21:56:58;5.4;;;4.7;;
27357;SDS011;14831;50.474;7.616;2023-02-15T22:01:58;5.4;;;4.7;;
27357;SDS011;14831;50.474;7.616;2023-02-15T22:06:58;5.4;;;4.7;;
27357;SDS011;14831;50.474;7.616;2023-02-15T22:11:58;5.4;;;4.7;;
27357;SDS011;14831;50.474;7.616;2023-02-15T22:16:58;5.4;;;4.7;;
27357;SDS011;14831;50.474;7.616;2023-02-15T22:21:58;6.0;;;4.8;;
27357;SDS011;14831;50.474;7.616;2023-02-15T22:26:59;6.0;;;4.8;;
27357;SDS011;14831;50.474;7.616;2023-02-15T22:31:58;6.0;;;4.8;;
27357;SDS011;14831;50.474;7.616;2023-02-15T22:36:58;6.0;;;4.8;;
27357;SDS011;14831;50.474;7.616;2023-02-15T22:41:58;6.0;;;4.8;;
27357;SDS011;14831;50.474;7.616;2023-02-15T22:47:00;6.0;;;4.8;;
27357;SDS011;14831;50.474;7.616;2023-02-15T22:51:58;5.1;;;4.6;;
27357;SDS011;14831;50.474;7.616;2023-02-15T22:56:58;5.1;;;4.6;;
27357;SDS011;14831;50.474;7.616;2023-02-15T23:01:59;5.1;;;4.6;;
27357;SDS011;14831;50.474;7.616;2023-02-15T23:06:58;5.1;;;4.6;;
27357;SDS011;14831;50.474;7.616;2023-02-15T23:11:58;5.1;;;4.6;;
27357;SDS011;14831;50.474;7.616;2023-02-15T23:16:59;5.1;;;4.6;;
27357;SDS011;14831;50.474;7.616;2023-02-15T23:21:58;4.8;;;4.2;;
27357;SDS011;14831;50.474;7.616;2023-02-15T23:26:59;4.8;;;4.2;;
27357;SDS011;14831;50.474;7.616;2023-02-15T23:31:58;4.8;;;4.2;;
27357;SDS011;14831;50.474;7.616;2023-02-15T23:36:58;4.8;;;4.2;;
27357;SDS011;14831;50.474;7.616;2023-02-15T23:42:01;4.8;;;4.2;;
27357;SDS011;14831;50.474;7.616;2023-02-15T23:46:58;4.8;;;4.2;;
27357;SDS011;14831;50.474;7.616;2023-02-15T23:51:59;4.6;;;4.0;;
27357;SDS011;14831;50.474;7.616;2023-02-15T23:57:00;4.6;;;4.0;;
